ADDS METAR Data INFO
IDs: Format: Raw Decoded Include TAF

Data at: 2355 UTC 23 Feb 2018

KSTL 232351Z 00000KT 10SM OVC014 07/05 A3027 RMK AO2 SLP254 T00720050 10100 20067 53006
KSTL 232309Z 36005KT 10SM OVC014 07/05 A3025 RMK AO2 T00720050
KSTL 232251Z 35005KT 10SM OVC016 07/05 A3025 RMK AO2 SLP248 T00720050
KSTL 232151Z 33007KT 10SM OVC017 08/06 A3026 RMK AO2 SLP250 T00830056
KSTL 232051Z 31006KT 10SM OVC016 09/06 A3025 RMK AO2 SLP247 T00890056 56012
KSTL 231951Z 34006KT 10SM OVC016 09/06 A3026 RMK AO2 SLP248 T00890061
KSTL 231851Z 25005KT 10SM OVC016 09/06 A3025 RMK AO2 SLP246 T00940061
KSTL 231751Z 27009KT 10SM OVC015 09/06 A3029 RMK AO2 SLP260 T00940061 10100 20078 53002
KSTL 231651Z 26009KT 10SM BKN015 BKN026 OVC250 09/06 A3028 RMK AO2 SLP257 T00890061
KSTL 231636Z 26009KT 10SM SCT012 BKN021 OVC250 09/07 A3028 RMK AO2 T00890067
KSTL 231551Z 28011KT 10SM BKN012 OVC026 08/07 A3028 RMK AO2 SLP257 T00830067
KSTL 231548Z 28009KT 10SM BKN012 OVC026 08/07 A3028 RMK AO2
KSTL 231451Z 26011KT 10SM OVC010 08/07 A3028 RMK AO2 SLP260 T00780067 53017
KSTL 231351Z 27009KT 10SM OVC011 08/07 A3024 RMK AO2 SLP246 T00780067
KSTL 231313Z 26007KT 10SM OVC014 08/07 A3024 RMK AO2 T00780067
KSTL 231251Z 24007KT 10SM BKN015 OVC029 08/07 A3024 RMK AO2 SLP243 T00780072
KSTL 231246Z 25006KT 10SM SCT015 OVC029 08/07 A3023 RMK AO2
KSTL 231206Z 27009KT 10SM FEW005 SCT013 OVC032 08/07 A3021 RMK AO2 T00780072
KSTL 231151Z 26009KT 10SM FEW005 BKN013 OVC028 08/07 A3020 RMK AO2 SLP233 60002 70013 T00780072 10078 20072 53011
KSTL 231120Z 26010KT 10SM FEW005 BKN013 OVC031 08/08 A3019 RMK AO2 T00780078
KSTL 231051Z 26008KT 10SM FEW005 OVC026 08/08 A3018 RMK AO2 DZE15 SLP223 P0000 T00780078
KSTL 231047Z 25009KT 10SM FEW005 BKN026 OVC036 08/08 A3017 RMK AO2 DZE15 P0000
KSTL 231035Z 25009KT 10SM FEW005 BKN030 OVC044 08/08 A3018 RMK AO2 DZE15 P0000 T00780078
KSTL 231007Z 25007KT 5SM -DZ BR FEW004 BKN020 OVC027 08/08 A3017 RMK AO2 P0000 T00780078
KSTL 230956Z 26008KT 3SM -DZ BR FEW004 FEW014 OVC024 08/08 A3017 RMK AO2 P0000 T00780078
KSTL 230951Z 26007KT 6SM -DZ BR SCT004 OVC029 08/08 A3017 RMK AO2 RAE06DZB07 SLP221 P0001 T00780078
KSTL 230946Z 25008KT 6SM -DZ BR SCT004 BKN024 OVC029 08/08 A3017 RMK AO2 RAE06DZB07 P0001
KSTL 230936Z 25008KT 5SM -DZ BR BKN003 BKN012 OVC026 08/08 A3017 RMK AO2 RAE06DZB07 P0001 T00780078
KSTL 230907Z 27007KT 3SM -DZ BR BKN004 OVC015 08/08 A3018 RMK AO2 RAE06DZB07 P0000 T00780078
KSTL 230851Z 26010KT 2SM -RA BR OVC004 08/08 A3018 RMK AO2 RAB35 SLP226 P0001 60001 T00780078 53003
KSTL 230839Z 27011KT 1 1/2SM -RA BR OVC004 08/08 A3018 RMK AO2 RAB35 P0000 T00780078
KSTL 230836Z 27011KT 2 1/2SM -RA BR OVC004 08/08 A3019 RMK AO2 RAB35 PRESRR P0000 T00780078
KSTL 230751Z 17007KT 7SM OVC004 08/08 A3014 RMK AO2 SLP212 T00780078
KSTL 230651Z 14012KT 7SM OVC004 08/07 A3015 RMK AO2 SLP214 T00780072
KSTL 230642Z 14010KT 7SM OVC004 07/07 A3015 RMK AO2 T00720072
KSTL 230551Z 13007KT 8SM BKN005 OVC010 07/07 A3018 RMK AO2 RAB07E42 SLP224 P0000 60007 T00720072 10072 20061 400720000 56024
KSTL 230451Z 11010KT 7SM BKN005 OVC011 07/07 A3018 RMK AO2 RAE0359B10E45 PRESFR SLP225 P0000 T00670067
KSTL 230402Z 13015KT 8SM BKN005 OVC010 07/06 A3021 RMK AO2 RAE0359 P0000 T00670061
KSTL 230351Z 12011KT 7SM -RA BKN004 OVC010 07/06 A3023 RMK AO2 SLP242 P0004 T00670061
KSTL 230256Z 10006KT 6SM -RA BR OVC004 06/06 A3025 RMK AO2 P0000 T00610061
KSTL 230251Z 10006KT 4SM -RA BR OVC005 06/06 A3025 RMK AO2 PRESFR SLP249 P0003 60003 T00610061 56022
KSTL 230248Z 11007KT 4SM -RA BR OVC005 06/06 A3026 RMK AO2 PRESFR P0003
KSTL 230243Z 11008KT 3SM -RA BR OVC004 06/06 A3027 RMK AO2 P0002 T00610061
KSTL 230216Z 14010KT 2 1/2SM -RA BR OVC003 06/06 A3029 RMK AO2 P0000 T00610061
KSTL 230157Z 12008KT 3/4SM R30R/P6000FT -RA BR OVC003 06/06 A3027 RMK AO2 SFC VIS 1 1/2 P0000 T00610061
KSTL 230155Z 11009KT 1 1/2SM -RA BR OVC005 06/06 A3027 RMK AO2 P0000 T00610061
KSTL 230151Z 11010KT 4SM -RA BR OVC005 06/06 A3027 RMK AO2 RAB49 PRESFR SLP259 P0000 T00610061
KSTL 230149Z 12008KT 4SM -RA BR OVC006 06/06 A3027 RMK AO2 RAB49 PRESFR P0000
KSTL 230120Z 14008KT 5SM BR OVC006 07/06 A3031 RMK AO2 T00670061
KSTL 230111Z 15006KT 5SM BR OVC004 07/06 A3031 RMK AO2 T00670061
KSTL 230051Z 18003KT 4SM BR OVC004 06/06 A3031 RMK AO2 SLP273 T00610061
KSTL 222351Z 00000KT 4SM BR OVC004 06/06 A3031 RMK AO2 SLP271 T00610056 10067 20044 58008
KSTL 222251Z 00000KT 4SM BR OVC004 06/06 A3032 RMK AO2 SLP275 T00610056
KSTL 222243Z 05003KT 4SM BR OVC004 06/06 A3031 RMK AO2 T00610056
KSTL 222230Z 01003KT 4SM BR OVC005 06/06 A3031 RMK AO2 T00610056
KSTL 222151Z 28005KT 5SM BR OVC005 06/06 A3034 RMK AO2 SLP284 T00610056
KSTL 222127Z 25006KT 4SM BR OVC005 06/06 A3034 RMK AO2 T00610056
KSTL 222051Z 22006KT 6SM BR OVC005 06/06 A3033 RMK AO2 SLP281 T00610056 55010
KSTL 222027Z 16005KT 6SM BR OVC005 06/06 A3032 RMK AO2 T00610061
KSTL 222004Z 13009KT 5SM BR OVC004 06/06 A3029 RMK AO2 T00610056
KSTL 221951Z 12009KT 3SM BR OVC004 06/06 A3028 RMK AO2 SLP262 T00560056
KSTL 221939Z 12011KT 3SM BR OVC004 06/06 A3029 RMK AO2 T00560056
KSTL 221851Z 10008KT 6SM BR OVC006 06/04 A3033 RMK AO2 SLP280 T00560044
KSTL 221840Z 10009KT 6SM BR OVC006 06/04 A3034 RMK AO2 T00560044
KSTL 221829Z 10005KT 5SM BR OVC004 05/04 A3035 RMK AO2 T00500044
KSTL 221819Z 07005KT 4SM BR OVC004 05/04 A3035 RMK AO2 T00500044
KSTL 221751Z 10006KT 3SM BR OVC004 04/04 A3036 RMK AO2 RAE05DZB05E24 PRESFR SLP291 P0000 60004 T00440044 10044 20011 58011
KSTL 221729Z 07003KT 3SM BR OVC004 04/04 A3039 RMK AO2 RAE05DZB05E24 P0000 T00440039
KSTL 221713Z 00000KT 2SM -DZ BR OVC004 04/04 A3040 RMK AO2 RAE05DZB05 P0000 T00390039
KSTL 221651Z 03003KT 3/4SM R30R/5500VP6000FT -RA BR OVC004 03/03 A3041 RMK AO2 SFC VIS 1 1/4 DZE50RAB50 SLP306 P0001 T00330033
KSTL 221631Z 00000KT 3/4SM R30R/5000V6000FT -DZ BR OVC004 03/03 A3042 RMK AO2 SFC VIS 1 1/4 P0000 T00330033
KSTL 221611Z 00000KT 1 1/2SM -DZ BR OVC004 03/03 A3042 RMK AO2 P0000 T00330028
KSTL 221551Z 00000KT 1 1/2SM -DZ BR OVC005 03/03 A3040 RMK AO2 RAE47DZB47 SLP305 P0002 T00280028
KSTL 221525Z 06005KT 1 1/2SM -RA BR OVC005 02/02 A3041 RMK AO2 P0002 T00220022
KSTL 221513Z 07005KT 2SM -RA BR OVC005 02/02 A3041 RMK AO2 P0001 T00220022
KSTL 221500Z 06005KT 3SM -RA BR OVC005 02/02 A3040 RMK AO2 P0000 T00220017
KSTL 221451Z 05007KT 4SM -RA BR OVC005 02/02 A3040 RMK AO2 DZE48RAB48 SLP304 P0000 60001 T00220017 53001
KSTL 221351Z 05006KT 3SM -DZ BR OVC005 02/01 A3040 RMK AO2 RAE12DZB12 SLP304 P0000 T00170011
KSTL 221332Z 05006KT 3SM -DZ BR OVC005 01/01 A3039 RMK AO2 RAE12DZB12 P0000 T00110011
KSTL 221318Z 03008KT 3SM -DZ BR OVC004 01/01 A3039 RMK AO2 RAE12DZB12 P0000 T00110011
KSTL 221258Z 04007KT 1 3/4SM -RA BR OVC004 01/01 A3039 RMK AO2 SFC VIS 2 1/2 P0000 T00110011
KSTL 221251Z 03007KT 1 3/4SM -RA BR OVC005 01/01 A3039 RMK AO2 SFC VIS 2 RAE01B47DZB01E47 SLP301 P0001 T00110011
KSTL 221236Z 03005KT 1 3/4SM -DZ BR OVC005 01/01 A3039 RMK AO2 RAE01DZB01 P0001 T00110011
KSTL 221217Z 02006KT 2 1/2SM -DZ BR OVC005 01/01 A3040 RMK AO2 RAE01DZB01 P0000 T00110011
KSTL 221201Z 03005KT 3SM -DZ BR OVC005 01/01 A3039 RMK AO2 RAE01DZB01 P0000 T00110011